createdAt,value
2022-08-28T00:01:30.162Z,7.65
2022-08-28T00:03:58.912Z,11.80
2022-08-28T00:06:25.797Z,12.43
2022-08-28T00:08:52.521Z,10.98
2022-08-28T00:11:21.076Z,11.23
2022-08-28T00:13:48.319Z,10.45
2022-08-28T00:16:15.142Z,14.02
2022-08-28T00:18:41.802Z,11.73
2022-08-28T00:21:08.450Z,7.82
2022-08-28T00:23:42.452Z,11.63
2022-08-28T00:26:31.741Z,12.38
2022-08-28T00:28:58.615Z,15.45
2022-08-28T00:31:25.355Z,7.30
2022-08-28T00:33:52.076Z,8.13
2022-08-28T00:36:19.649Z,13.55
2022-08-28T00:38:46.303Z,5.90
2022-08-28T00:41:13.265Z,14.73
2022-08-28T00:43:45.637Z,11.43
2022-08-28T00:46:16.813Z,11.10
2022-08-28T00:48:43.545Z,17.50
2022-08-28T00:51:29.168Z,10.32
2022-08-28T00:53:58.971Z,8.15
2022-08-28T00:56:27.540Z,8.07
2022-08-28T00:58:57.569Z,7.32
2022-08-28T01:01:24.860Z,8.52
2022-08-28T01:03:51.591Z,8.00
2022-08-28T01:06:20.590Z,9.50
2022-08-28T01:08:50.552Z,18.75
2022-08-28T01:11:19.119Z,12.45
2022-08-28T01:13:47.176Z,14.52
2022-08-28T01:16:15.763Z,14.15
2022-08-28T01:18:43.498Z,11.15
2022-08-28T01:21:27.637Z,11.80
2022-08-28T01:24:04.313Z,8.60
2022-08-28T01:26:31.371Z,9.57
2022-08-28T01:28:59.886Z,9.45
2022-08-28T01:31:28.669Z,13.57
2022-08-28T01:33:56.185Z,14.65
2022-08-28T01:36:22.854Z,9.38
2022-08-28T01:38:53.797Z,16.50
2022-08-28T01:41:20.804Z,10.77
2022-08-28T01:43:47.486Z,11.68
2022-08-28T01:46:14.254Z,8.52
2022-08-28T01:48:45.042Z,12.65
2022-08-28T01:51:12.798Z,10.15
2022-08-28T01:53:39.525Z,14.23
2022-08-28T01:56:10.160Z,16.60
2022-08-28T01:58:38.383Z,13.40
2022-08-28T02:01:13.638Z,10.10
2022-08-28T02:03:42.753Z,8.95
2022-08-28T02:06:10.310Z,15.73
2022-08-28T02:08:37.162Z,9.32
2022-08-28T02:11:06.372Z,17.25
2022-08-28T02:13:33.717Z,10.38
2022-08-28T02:16:00.832Z,20.13
2022-08-28T02:18:27.739Z,14.27
2022-08-28T02:20:54.416Z,9.45
2022-08-28T02:23:21.547Z,13.02
2022-08-28T02:25:48.163Z,12.65
2022-08-28T02:28:17.506Z,10.02
2022-08-28T02:30:44.800Z,17.42
2022-08-28T02:33:11.484Z,10.63
2022-08-28T02:35:42.574Z,15.60
2022-08-28T02:38:10.153Z,13.95
2022-08-28T02:40:37.287Z,11.82
2022-08-28T02:43:05.234Z,13.10
2022-08-28T02:45:32.763Z,10.77
2022-08-28T02:48:01.535Z,9.95
2022-08-28T02:50:29.911Z,10.95
2022-08-28T02:52:56.692Z,13.02
2022-08-28T02:55:24.735Z,13.10
2022-08-28T02:57:52.745Z,19.98
2022-08-28T03:00:22.390Z,13.15
2022-08-28T03:02:49.731Z,10.15
2022-08-28T03:05:19.140Z,9.13
2022-08-28T03:07:45.865Z,11.55
2022-08-28T03:10:12.830Z,8.95
2022-08-28T03:12:39.568Z,10.52
2022-08-28T03:15:07.659Z,14.95
2022-08-28T03:17:36.847Z,20.70
2022-08-28T03:20:07.973Z,9.88
2022-08-28T03:22:53.179Z,10.90
2022-08-28T03:25:19.992Z,16.20
2022-08-28T03:27:46.619Z,11.98
2022-08-28T03:30:13.903Z,10.07
2022-08-28T03:32:40.576Z,13.63
2022-08-28T03:35:07.659Z,13.93
2022-08-28T03:37:34.311Z,14.38
2022-08-28T03:40:01.410Z,13.95
2022-08-28T03:42:28.163Z,13.00
2022-08-28T03:44:54.839Z,16.77
2022-08-28T03:47:22.539Z,10.63
2022-08-28T03:49:55.516Z,17.27
2022-08-28T03:52:22.515Z,12.57
2022-08-28T03:54:49.273Z,16.17
2022-08-28T03:57:20.306Z,8.00
2022-08-28T03:59:51.787Z,12.82
2022-08-28T04:02:20.587Z,11.48
2022-08-28T04:04:50.648Z,14.10
2022-08-28T04:07:18.583Z,10.38
2022-08-28T04:09:45.839Z,8.88
2022-08-28T04:12:12.705Z,17.85
2022-08-28T04:14:39.456Z,11.52
2022-08-28T04:17:06.442Z,10.68
2022-08-28T04:19:33.653Z,15.93
2022-08-28T04:22:01.275Z,13.98
2022-08-28T04:24:27.997Z,12.07
2022-08-28T04:26:56.228Z,15.75
2022-08-28T04:29:23.150Z,14.77
2022-08-28T04:31:50.437Z,8.90
2022-08-28T04:34:18.081Z,20.73
2022-08-28T04:36:46.089Z,10.60
2022-08-28T04:39:13.207Z,10.35
2022-08-28T04:41:40.091Z,20.85
2022-08-28T04:44:08.009Z,16.88
2022-08-28T04:46:35.075Z,13.90
2022-08-28T04:49:01.878Z,18.38
2022-08-28T04:51:28.930Z,15.32
2022-08-28T04:53:56.192Z,16.45
2022-08-28T04:56:23.103Z,10.25
2022-08-28T04:58:50.086Z,18.27
2022-08-28T05:01:24.219Z,9.60
2022-08-28T05:03:54.923Z,14.43
2022-08-28T05:06:22.854Z,12.20
2022-08-28T05:08:49.678Z,10.63
2022-08-28T05:11:27.333Z,13.18
2022-08-28T05:14:01.431Z,9.23
2022-08-28T05:16:28.158Z,7.20
2022-08-28T05:18:54.866Z,11.35
2022-08-28T05:21:22.735Z,14.10
2022-08-28T05:23:51.388Z,12.27
2022-08-28T05:26:19.027Z,16.88
2022-08-28T05:28:47.064Z,12.45
2022-08-28T05:31:18.744Z,9.93
2022-08-28T05:33:55.548Z,11.48
2022-08-28T05:36:23.432Z,12.27
2022-08-28T05:38:56.446Z,9.18
2022-08-28T05:41:25.813Z,11.75
2022-08-28T05:43:55.673Z,8.02
2022-08-28T05:46:23.235Z,11.57
2022-08-28T05:48:50.236Z,13.50
2022-08-28T05:51:20.262Z,13.15
2022-08-28T05:53:49.826Z,15.50
2022-08-28T05:56:19.894Z,10.77
2022-08-28T05:58:46.820Z,14.82
2022-08-28T06:01:28.051Z,8.52
2022-08-28T06:04:00.577Z,13.88
2022-08-28T06:06:29.938Z,10.60
2022-08-28T06:09:01.912Z,11.98
2022-08-28T06:11:30.566Z,15.23
2022-08-28T06:14:02.808Z,7.57
2022-08-28T06:16:32.043Z,8.05
2022-08-28T06:18:59.502Z,10.23
2022-08-28T06:21:28.135Z,12.02
2022-08-28T06:23:56.279Z,9.60
2022-08-28T06:26:23.491Z,12.40
2022-08-28T06:28:50.153Z,11.45
2022-08-28T06:31:24.419Z,10.73
2022-08-28T06:33:57.842Z,11.48
2022-08-28T06:36:27.338Z,11.77
2022-08-28T06:38:55.370Z,8.88
2022-08-28T06:41:22.224Z,16.50
2022-08-28T06:43:49.196Z,11.07
2022-08-28T06:46:16.113Z,14.27
2022-08-28T06:48:42.920Z,14.45
2022-08-28T06:51:11.659Z,13.10
2022-08-28T06:53:45.605Z,10.48
2022-08-28T06:56:26.619Z,7.05
2022-08-28T06:58:55.748Z,13.23
2022-08-28T07:01:29.700Z,12.65
2022-08-28T07:04:02.302Z,7.82
2022-08-28T07:06:32.485Z,13.02
2022-08-28T07:08:59.152Z,12.13
2022-08-28T07:11:28.883Z,4.70
2022-08-28T07:13:56.294Z,12.52
2022-08-28T07:16:25.702Z,12.90
2022-08-28T07:18:53.082Z,12.55
2022-08-28T07:21:20.748Z,11.07
2022-08-28T07:23:48.855Z,5.72
2022-08-28T07:26:19.152Z,9.65
2022-08-28T07:28:46.407Z,7.45
2022-08-28T07:31:20.252Z,9.70
2022-08-28T07:33:47.087Z,7.80
2022-08-28T07:36:28.897Z,10.40
2022-08-28T07:38:58.984Z,3.60
2022-08-28T07:41:31.849Z,8.90
2022-08-28T07:44:17.731Z,10.82
2022-08-28T07:46:45.388Z,6.28
2022-08-28T07:49:14.767Z,12.02
2022-08-28T07:51:41.425Z,4.20
2022-08-28T07:54:11.212Z,6.63
2022-08-28T07:56:42.652Z,8.18
2022-08-28T07:59:11.441Z,10.30
2022-08-28T08:01:41.994Z,7.45
2022-08-28T08:04:12.695Z,13.90
2022-08-28T08:06:41.193Z,9.88
2022-08-28T08:09:10.507Z,7.00
2022-08-28T08:11:37.474Z,8.73
2022-08-28T08:14:06.144Z,8.50
2022-08-28T08:16:39.616Z,9.60
2022-08-28T08:19:09.816Z,4.60
2022-08-28T08:21:37.235Z,9.95
2022-08-28T08:24:04.492Z,7.43
2022-08-28T08:26:31.921Z,8.45
2022-08-28T08:28:59.648Z,3.92
2022-08-28T08:31:29.747Z,8.90
2022-08-28T08:33:59.306Z,6.38
2022-08-28T08:36:26.877Z,7.07
2022-08-28T08:38:59.172Z,9.80
2022-08-28T08:41:47.914Z,8.23
2022-08-28T08:44:17.619Z,6.20
2022-08-28T08:46:51.802Z,6.57
2022-08-28T08:49:26.480Z,6.20
2022-08-28T08:52:37.179Z,6.88
2022-08-28T08:55:24.598Z,10.32
2022-08-28T08:58:03.036Z,5.15
2022-08-28T09:00:33.519Z,6.20
2022-08-28T09:03:07.675Z,8.10
2022-08-28T09:05:41.836Z,7.13
2022-08-28T09:08:27.136Z,6.03
2022-08-28T09:11:09.993Z,6.10
2022-08-28T09:14:05.138Z,6.45
2022-08-28T09:16:36.942Z,10.07
2022-08-28T09:19:05.192Z,7.45
2022-08-28T09:21:34.480Z,6.82
2022-08-28T09:24:05.514Z,7.05
2022-08-28T09:26:32.912Z,9.75
2022-08-28T09:29:24.189Z,7.80
2022-08-28T09:31:58.376Z,6.40
2022-08-28T09:34:30.053Z,8.18
2022-08-28T09:37:02.548Z,7.90
2022-08-28T09:39:31.948Z,6.55
2022-08-28T09:42:22.835Z,4.85
2022-08-28T09:45:15.367Z,5.20
2022-08-28T09:47:52.276Z,4.97
2022-08-28T09:50:21.509Z,6.32
2022-08-28T09:52:49.469Z,5.40
2022-08-28T09:55:43.318Z,7.00
2022-08-28T09:58:22.128Z,3.08
2022-08-28T10:00:54.878Z,3.85
2022-08-28T10:04:00.212Z,6.07
2022-08-28T10:06:32.588Z,5.78
2022-08-28T10:09:12.063Z,5.13
2022-08-28T10:11:51.419Z,6.05
2022-08-28T10:14:38.296Z,4.20
2022-08-28T10:17:36.089Z,6.40
2022-08-28T10:20:12.142Z,3.75
2022-08-28T10:23:00.623Z,5.38
2022-08-28T10:25:55.178Z,6.90
2022-08-28T10:28:50.530Z,7.13
2022-08-28T10:31:24.249Z,5.97
2022-08-28T10:33:59.954Z,6.57
2022-08-28T10:36:33.564Z,6.15
2022-08-28T10:39:56.419Z,8.05
2022-08-28T10:43:06.177Z,3.80
2022-08-28T10:45:35.126Z,9.02
2022-08-28T10:48:08.778Z,4.63
2022-08-28T10:50:51.622Z,4.65
2022-08-28T10:53:50.425Z,5.80
2022-08-28T10:56:20.981Z,8.52
2022-08-28T10:58:51.522Z,5.20
2022-08-28T11:01:34.928Z,8.40
2022-08-28T11:04:04.301Z,2.35
2022-08-28T11:06:53.483Z,7.93
2022-08-28T11:09:47.828Z,6.60
2022-08-28T11:12:17.413Z,4.13
2022-08-28T11:14:48.524Z,9.65
2022-08-28T11:17:21.821Z,3.97
2022-08-28T11:19:56.359Z,6.53
2022-08-28T11:22:28.220Z,4.20
2022-08-28T11:25:13.624Z,9.23
2022-08-28T11:27:41.488Z,4.85
2022-08-28T11:30:11.920Z,9.23
2022-08-28T11:32:53.370Z,3.90
2022-08-28T11:35:37.390Z,13.23
2022-08-28T11:38:06.051Z,3.05
2022-08-28T11:40:32.771Z,2.67
2022-08-28T11:45:59.796Z,4.75
2022-08-28T11:48:36.128Z,4.68
2022-08-28T11:51:41.311Z,2.53
2022-08-28T11:54:20.790Z,5.90
2022-08-28T11:57:14.315Z,6.25
2022-08-28T11:59:58.877Z,6.57
2022-08-28T12:02:35.706Z,4.70
2022-08-28T12:05:11.684Z,5.93
2022-08-28T12:07:42.729Z,5.00
2022-08-28T12:10:27.629Z,5.45
2022-08-28T12:12:59.780Z,1.92
2022-08-28T12:15:34.035Z,3.22
2022-08-28T12:18:36.952Z,6.60
2022-08-28T12:21:07.625Z,4.82
2022-08-28T12:23:58.102Z,3.53
2022-08-28T12:26:40.234Z,3.40
2022-08-28T12:29:35.235Z,3.53
2022-08-28T12:32:30.257Z,4.35
2022-08-28T12:35:00.348Z,4.97
2022-08-28T12:37:39.412Z,3.60
2022-08-28T12:40:20.158Z,4.30
2022-08-28T12:43:07.499Z,5.60
2022-08-28T12:45:52.147Z,3.33
2022-08-28T12:48:23.200Z,3.85
2022-08-28T12:51:04.486Z,5.18
2022-08-28T12:54:04.191Z,3.63
2022-08-28T12:56:34.897Z,3.35
2022-08-28T12:59:32.671Z,3.25
2022-08-28T13:02:17.895Z,4.00
2022-08-28T13:04:55.632Z,4.03
2022-08-28T13:07:46.830Z,4.93
2022-08-28T13:10:29.939Z,3.63
2022-08-28T13:13:05.155Z,9.98
2022-08-28T13:15:57.066Z,2.10
2022-08-28T13:18:50.454Z,4.60
2022-08-28T13:21:33.253Z,3.22
2022-08-28T13:24:24.278Z,2.35
2022-08-28T13:27:01.015Z,2.70
2022-08-28T13:29:29.551Z,4.65
2022-08-28T13:31:58.993Z,4.20
2022-08-28T13:34:30.048Z,4.03
2022-08-28T13:37:02.294Z,5.97
2022-08-28T13:39:33.152Z,5.85
2022-08-28T13:42:14.020Z,6.32
2022-08-28T13:44:54.023Z,3.67
2022-08-28T13:47:20.769Z,4.35
2022-08-28T13:49:47.497Z,2.70
2022-08-28T13:52:14.280Z,4.78
2022-08-28T13:54:43.627Z,4.88
2022-08-28T13:57:13.433Z,5.88
2022-08-28T13:59:40.291Z,3.90
2022-08-28T14:02:27.720Z,5.15
2022-08-28T14:04:54.532Z,6.70
2022-08-28T14:07:21.234Z,4.47
2022-08-28T14:09:50.091Z,4.30
2022-08-28T14:12:19.653Z,3.40
2022-08-28T14:14:46.443Z,2.38
2022-08-28T14:17:13.244Z,1.92
2022-08-28T14:19:40.159Z,2.35
2022-08-28T14:22:08.912Z,5.78
2022-08-28T14:24:42.959Z,3.50
2022-08-28T14:27:11.871Z,4.35
2022-08-28T14:29:38.817Z,3.53
2022-08-28T14:32:05.941Z,3.00
2022-08-28T14:34:34.812Z,4.53
2022-08-28T14:37:03.749Z,8.60
2022-08-28T14:39:31.299Z,4.72
2022-08-28T14:41:58.027Z,5.05
2022-08-28T14:44:25.574Z,2.88
2022-08-28T14:46:57.023Z,3.65
2022-08-28T14:49:26.446Z,8.13
2022-08-28T14:51:54.202Z,2.67
2022-08-28T14:54:25.610Z,2.00
2022-08-28T14:56:52.911Z,3.38
2022-08-28T14:59:24.517Z,4.75
2022-08-28T15:01:53.617Z,2.72
2022-08-28T15:04:28.142Z,6.00
2022-08-28T15:06:58.388Z,3.30
2022-08-28T15:09:27.094Z,3.05
2022-08-28T15:11:53.792Z,4.25
2022-08-28T15:14:21.270Z,2.78
2022-08-28T15:16:49.373Z,6.22
2022-08-28T15:19:18.981Z,5.22
2022-08-28T15:21:49.861Z,6.43
2022-08-28T15:24:21.457Z,2.67
2022-08-28T15:26:48.506Z,4.20
2022-08-28T15:29:16.664Z,3.30
2022-08-28T15:31:45.857Z,2.30
2022-08-28T15:34:20.328Z,1.95
2022-08-28T15:36:54.761Z,2.55
2022-08-28T15:39:41.186Z,2.63
2022-08-28T15:42:08.581Z,3.58
2022-08-28T15:44:35.379Z,2.15
2022-08-28T15:47:03.078Z,2.03
2022-08-28T15:49:32.229Z,6.35
2022-08-28T15:52:04.003Z,6.38
2022-08-28T15:54:31.847Z,3.92
2022-08-28T15:57:07.962Z,3.50
2022-08-28T15:59:48.603Z,3.92
2022-08-28T16:02:16.574Z,4.97
2022-08-28T16:04:43.429Z,3.28
2022-08-28T16:07:15.432Z,6.22
2022-08-28T16:09:42.137Z,4.55
2022-08-28T16:12:08.992Z,6.38
2022-08-28T16:14:36.233Z,5.97
2022-08-28T16:17:05.732Z,3.58
2022-08-28T16:19:40.683Z,5.38
2022-08-28T16:22:15.257Z,2.00
2022-08-28T16:24:42.734Z,2.92
2022-08-28T16:27:13.253Z,5.85
2022-08-28T16:29:42.670Z,5.05
2022-08-28T16:32:11.781Z,2.25
2022-08-28T16:34:39.062Z,3.55
2022-08-28T16:37:08.029Z,3.42
2022-08-28T16:39:35.540Z,3.88
2022-08-28T16:42:02.391Z,4.15
2022-08-28T16:44:29.005Z,3.80
2022-08-28T16:46:56.050Z,4.07
2022-08-28T16:49:23.722Z,5.53
2022-08-28T16:51:51.883Z,1.90
2022-08-28T16:54:19.178Z,5.28
2022-08-28T16:56:46.809Z,5.18
2022-08-28T16:59:20.349Z,2.05
2022-08-28T17:01:53.040Z,1.98
2022-08-28T17:04:21.409Z,3.03
2022-08-28T17:06:48.271Z,4.38
2022-08-28T17:09:14.969Z,2.42
2022-08-28T17:11:42.051Z,3.50
2022-08-28T17:14:11.087Z,2.92
2022-08-28T17:16:38.734Z,4.53
2022-08-28T17:19:09.899Z,2.50
2022-08-28T17:24:36.024Z,5.40
2022-08-28T17:27:05.756Z,2.60
2022-08-28T17:29:34.669Z,5.22
2022-08-28T17:32:05.395Z,4.88
2022-08-28T17:34:33.078Z,1.52
2022-08-28T17:37:13.822Z,2.67
2022-08-28T17:39:40.610Z,9.00
2022-08-28T17:42:11.702Z,2.35
2022-08-28T17:44:38.590Z,3.70
2022-08-28T17:49:46.744Z,1.73
2022-08-28T17:52:13.795Z,4.55
2022-08-28T17:54:40.598Z,2.85
2022-08-28T17:57:07.387Z,4.57
2022-08-28T17:59:35.573Z,7.13
2022-08-28T18:02:03.413Z,7.28
2022-08-28T18:04:30.199Z,4.45
2022-08-28T18:06:59.034Z,4.95
2022-08-28T18:09:33.926Z,3.35
2022-08-28T18:12:01.285Z,4.68
2022-08-28T18:14:28.278Z,4.15
2022-08-28T18:17:09.145Z,4.25
2022-08-28T18:19:46.592Z,5.45
2022-08-28T18:22:13.835Z,4.70
2022-08-28T18:24:41.223Z,2.50
2022-08-28T18:27:09.366Z,3.42
2022-08-28T18:29:37.021Z,3.63
2022-08-28T18:32:08.458Z,9.60
2022-08-28T18:34:35.378Z,2.55
2022-08-28T18:37:04.910Z,8.77
2022-08-28T18:39:36.149Z,6.85
2022-08-28T18:42:04.712Z,5.00
2022-08-28T18:44:32.443Z,4.18
2022-08-28T18:46:59.274Z,3.92
2022-08-28T18:49:27.171Z,2.80
2022-08-28T18:51:54.863Z,4.95
2022-08-28T18:54:22.975Z,5.47
2022-08-28T18:56:50.385Z,5.25
2022-08-28T18:59:18.062Z,9.23
2022-08-28T19:01:44.860Z,4.60
2022-08-28T19:04:12.274Z,4.80
2022-08-28T19:06:40.785Z,6.85
2022-08-28T19:09:07.914Z,3.80
2022-08-28T19:11:35.850Z,7.15
2022-08-28T19:14:03.596Z,5.45
2022-08-28T19:16:32.185Z,3.58
2022-08-28T19:18:59.283Z,4.05
2022-08-28T19:21:28.217Z,9.45
2022-08-28T19:23:56.920Z,4.18
2022-08-28T19:26:26.642Z,6.38
2022-08-28T19:28:53.762Z,7.25
2022-08-28T19:31:20.741Z,3.60
2022-08-28T19:33:49.368Z,4.05
2022-08-28T19:36:17.471Z,5.35
2022-08-28T19:38:44.568Z,7.22
2022-08-28T19:41:12.845Z,4.50
2022-08-28T19:43:42.740Z,6.63
2022-08-28T19:46:18.395Z,4.75
2022-08-28T19:48:48.365Z,3.70
2022-08-28T19:51:22.160Z,5.07
2022-08-28T19:53:57.384Z,5.55
2022-08-28T19:56:28.883Z,3.13
2022-08-28T19:58:59.839Z,3.53
2022-08-28T20:01:32.780Z,6.47
2022-08-28T20:04:00.601Z,3.85
2022-08-28T20:06:30.465Z,4.57
2022-08-28T20:08:57.363Z,2.90
2022-08-28T20:11:29.094Z,2.70
2022-08-28T20:14:05.238Z,3.92
2022-08-28T20:16:48.165Z,4.57
2022-08-28T20:19:21.183Z,2.45
2022-08-28T20:21:50.178Z,3.05
2022-08-28T20:24:36.250Z,5.43
2022-08-28T20:27:03.377Z,2.65
2022-08-28T20:29:30.116Z,4.85
2022-08-28T20:32:03.035Z,4.55
2022-08-28T20:34:30.042Z,1.90
2022-08-28T20:36:57.372Z,4.18
2022-08-28T20:42:09.561Z,6.05
2022-08-28T20:44:36.663Z,4.78
2022-08-28T20:47:04.014Z,5.75
2022-08-28T20:49:39.452Z,2.55
2022-08-28T20:52:07.557Z,3.42
2022-08-28T20:54:37.353Z,4.63
2022-08-28T20:57:18.904Z,3.20
2022-08-28T20:59:47.690Z,2.20
2022-08-28T21:02:23.041Z,5.03
2022-08-28T21:04:53.637Z,4.60
2022-08-28T21:07:35.171Z,4.30
2022-08-28T21:10:07.746Z,2.92
2022-08-28T21:12:40.090Z,3.47
2022-08-28T21:15:08.994Z,2.65
2022-08-28T21:17:36.012Z,4.68
2022-08-28T21:20:08.447Z,2.33
2022-08-28T21:22:36.028Z,3.72
2022-08-28T21:25:05.003Z,8.70
2022-08-28T21:27:32.016Z,3.22
2022-08-28T21:30:00.869Z,3.88
2022-08-28T21:32:30.185Z,2.88
2022-08-28T21:34:57.337Z,3.42
2022-08-28T21:37:24.358Z,5.07
2022-08-28T21:39:51.112Z,12.38
2022-08-28T21:42:18.404Z,2.92
2022-08-28T21:44:48.344Z,5.45
2022-08-28T21:47:23.192Z,3.42
2022-08-28T21:49:52.246Z,5.35
2022-08-28T21:52:19.976Z,4.25
2022-08-28T21:54:46.739Z,2.85
2022-08-28T21:57:13.676Z,6.78
2022-08-28T21:59:40.523Z,3.22
2022-08-28T22:02:07.318Z,4.13
2022-08-28T22:04:34.750Z,4.75
2022-08-28T22:07:01.826Z,3.75
2022-08-28T22:09:29.129Z,2.33
2022-08-28T22:11:55.966Z,6.15
2022-08-28T22:14:24.552Z,3.40
2022-08-28T22:16:51.345Z,4.22
2022-08-28T22:19:18.051Z,4.25
2022-08-28T22:22:03.212Z,3.22
2022-08-28T22:24:30.061Z,8.00
2022-08-28T22:26:57.562Z,5.05
2022-08-28T22:29:24.969Z,3.47
2022-08-28T22:31:52.535Z,6.88
2022-08-28T22:34:19.550Z,4.65
2022-08-28T22:36:46.346Z,2.35
2022-08-28T22:39:13.094Z,5.28
2022-08-28T22:41:40.389Z,5.28
2022-08-28T22:44:12.133Z,3.17
2022-08-28T22:46:39.403Z,5.53
2022-08-28T22:49:06.545Z,8.20
2022-08-28T22:51:35.261Z,7.10
2022-08-28T22:54:03.163Z,5.13
2022-08-28T22:56:29.951Z,6.57
2022-08-28T22:58:57.803Z,1.90
2022-08-28T23:04:28.367Z,6.32
2022-08-28T23:06:55.661Z,5.55
2022-08-28T23:09:22.680Z,7.28
2022-08-28T23:11:49.725Z,5.55
2022-08-28T23:14:17.086Z,3.65
2022-08-28T23:16:44.158Z,4.13
2022-08-28T23:19:13.209Z,3.17
2022-08-28T23:21:43.719Z,6.70
2022-08-28T23:24:16.143Z,2.80
2022-08-28T23:26:44.164Z,3.20
2022-08-28T23:29:11.733Z,7.57
2022-08-28T23:31:39.055Z,3.47
2022-08-28T23:34:06.086Z,4.53
2022-08-28T23:36:35.513Z,4.75
2022-08-28T23:39:02.713Z,5.50
2022-08-28T23:41:29.384Z,2.40
2022-08-28T23:43:57.264Z,3.20
2022-08-28T23:46:23.909Z,3.80
2022-08-28T23:48:51.424Z,4.47
2022-08-28T23:51:18.464Z,5.97
2022-08-28T23:53:45.305Z,6.45
2022-08-28T23:56:12.816Z,4.05
2022-08-28T23:58:39.970Z,3.83
